sensor_id;sensor_type;location;lat;lon;timestamp;temperature;humidity
41168;DHT22;26906;45.658;9.272;2024-02-21T06:35:44;7.20;99.90
41168;DHT22;26906;45.658;9.272;2024-02-21T06:38:28;7.40;99.90
41168;DHT22;26906;45.658;9.272;2024-02-21T06:40:53;7.60;99.90
41168;DHT22;26906;45.658;9.272;2024-02-21T06:43:20;7.60;99.90
41168;DHT22;26906;45.658;9.272;2024-02-21T06:45:58;7.50;99.90
41168;DHT22;26906;45.658;9.272;2024-02-21T06:48:25;7.50;99.90
41168;DHT22;26906;45.658;9.272;2024-02-21T06:50:51;7.50;99.90
41168;DHT22;26906;45.658;9.272;2024-02-21T06:53:16;7.50;99.90
41168;DHT22;26906;45.658;9.272;2024-02-21T06:55:42;7.50;99.90
41168;DHT22;26906;45.658;9.272;2024-02-21T06:58:08;7.50;99.90
41168;DHT22;26906;45.658;9.272;2024-02-21T07:00:37;7.60;99.90
41168;DHT22;26906;45.658;9.272;2024-02-21T07:03:03;7.60;99.90
41168;DHT22;26906;45.658;9.272;2024-02-21T07:05:28;7.70;99.90
41168;DHT22;26906;45.658;9.272;2024-02-21T07:07:54;7.80;99.90
41168;DHT22;26906;45.658;9.272;2024-02-21T07:10:20;7.80;99.90
41168;DHT22;26906;45.658;9.272;2024-02-21T07:12:46;7.90;99.90
41168;DHT22;26906;45.658;9.272;2024-02-21T07:15:13;8.10;99.90
41168;DHT22;26906;45.658;9.272;2024-02-21T07:17:39;8.20;99.90
41168;DHT22;26906;45.658;9.272;2024-02-21T07:20:05;8.30;99.90
41168;DHT22;26906;45.658;9.272;2024-02-21T07:22:31;8.30;99.90
41168;DHT22;26906;45.658;9.272;2024-02-21T07:24:57;8.40;99.90
41168;DHT22;26906;45.658;9.272;2024-02-21T07:27:22;8.40;99.90
41168;DHT22;26906;45.658;9.272;2024-02-21T07:29:48;8.50;99.90
41168;DHT22;26906;45.658;9.272;2024-02-21T07:32:14;8.70;99.90
41168;DHT22;26906;45.658;9.272;2024-02-21T07:34:40;8.80;99.90
41168;DHT22;26906;45.658;9.272;2024-02-21T07:37:06;8.90;99.90
41168;DHT22;26906;45.658;9.272;2024-02-21T07:39:36;9.30;99.90
41168;DHT22;26906;45.658;9.272;2024-02-21T07:42:04;9.50;99.90
41168;DHT22;26906;45.658;9.272;2024-02-21T07:44:31;9.60;99.90
41168;DHT22;26906;45.658;9.272;2024-02-21T07:46:59;9.60;99.90
41168;DHT22;26906;45.658;9.272;2024-02-21T07:49:25;9.50;99.90
41168;DHT22;26906;45.658;9.272;2024-02-21T07:51:50;9.60;99.90
41168;DHT22;26906;45.658;9.272;2024-02-21T07:54:18;9.80;99.90
41168;DHT22;26906;45.658;9.272;2024-02-21T07:56:43;10.00;99.90
41168;DHT22;26906;45.658;9.272;2024-02-21T07:59:09;10.10;99.90
41168;DHT22;26906;45.658;9.272;2024-02-21T08:01:35;10.20;99.90
41168;DHT22;26906;45.658;9.272;2024-02-21T08:04:00;10.30;99.90
41168;DHT22;26906;45.658;9.272;2024-02-21T08:06:26;10.40;99.90
41168;DHT22;26906;45.658;9.272;2024-02-21T08:08:52;10.60;99.90
41168;DHT22;26906;45.658;9.272;2024-02-21T08:11:18;10.70;99.90
41168;DHT22;26906;45.658;9.272;2024-02-21T08:13:43;10.80;99.90
41168;DHT22;26906;45.658;9.272;2024-02-21T08:16:10;10.90;99.90
41168;DHT22;26906;45.658;9.272;2024-02-21T08:18:37;11.00;99.90
41168;DHT22;26906;45.658;9.272;2024-02-21T08:21:04;11.20;99.90
41168;DHT22;26906;45.658;9.272;2024-02-21T08:23:30;11.30;99.90
41168;DHT22;26906;45.658;9.272;2024-02-21T08:25:55;11.40;99.90
41168;DHT22;26906;45.658;9.272;2024-02-21T08:28:32;11.60;99.90
41168;DHT22;26906;45.658;9.272;2024-02-21T08:30:58;11.80;99.90
41168;DHT22;26906;45.658;9.272;2024-02-21T08:33:24;12.00;99.90
41168;DHT22;26906;45.658;9.272;2024-02-21T08:38:58;12.50;99.90
41168;DHT22;26906;45.658;9.272;2024-02-21T08:41:24;12.70;99.90
41168;DHT22;26906;45.658;9.272;2024-02-21T08:43:51;12.80;99.90
41168;DHT22;26906;45.658;9.272;2024-02-21T08:46:19;13.00;99.90
41168;DHT22;26906;45.658;9.272;2024-02-21T08:48:46;13.20;99.90
41168;DHT22;26906;45.658;9.272;2024-02-21T08:51:15;13.30;99.90
41168;DHT22;26906;45.658;9.272;2024-02-21T08:53:40;13.30;99.90
41168;DHT22;26906;45.658;9.272;2024-02-21T08:56:06;13.40;99.90
41168;DHT22;26906;45.658;9.272;2024-02-21T08:58:36;13.60;99.90
41168;DHT22;26906;45.658;9.272;2024-02-21T09:01:05;13.70;99.90
41168;DHT22;26906;45.658;9.272;2024-02-21T09:03:36;13.90;99.90
41168;DHT22;26906;45.658;9.272;2024-02-21T09:06:02;14.10;99.90
41168;DHT22;26906;45.658;9.272;2024-02-21T09:08:27;14.30;99.90
41168;DHT22;26906;45.658;9.272;2024-02-21T09:10:53;14.40;99.90
41168;DHT22;26906;45.658;9.272;2024-02-21T09:13:20;14.60;99.90
41168;DHT22;26906;45.658;9.272;2024-02-21T09:15:48;14.60;99.90
41168;DHT22;26906;45.658;9.272;2024-02-21T09:18:15;14.80;99.90
41168;DHT22;26906;45.658;9.272;2024-02-21T09:20:41;14.90;99.90
41168;DHT22;26906;45.658;9.272;2024-02-21T09:23:06;14.90;99.90
41168;DHT22;26906;45.658;9.272;2024-02-21T09:25:32;15.00;99.90
41168;DHT22;26906;45.658;9.272;2024-02-21T09:27:58;15.00;99.90
41168;DHT22;26906;45.658;9.272;2024-02-21T09:30:24;15.10;99.90
41168;DHT22;26906;45.658;9.272;2024-02-21T09:32:50;15.20;99.90
41168;DHT22;26906;45.658;9.272;2024-02-21T09:35:16;15.10;99.90
41168;DHT22;26906;45.658;9.272;2024-02-21T09:37:41;15.30;99.90
41168;DHT22;26906;45.658;9.272;2024-02-21T09:40:07;15.30;99.90
41168;DHT22;26906;45.658;9.272;2024-02-21T09:42:39;15.30;99.90
41168;DHT22;26906;45.658;9.272;2024-02-21T09:45:15;15.20;99.90
41168;DHT22;26906;45.658;9.272;2024-02-21T09:50:40;15.20;99.90
41168;DHT22;26906;45.658;9.272;2024-02-21T09:53:46;15.30;99.90
41168;DHT22;26906;45.658;9.272;2024-02-21T09:56:16;15.40;99.90
41168;DHT22;26906;45.658;9.272;2024-02-21T09:58:42;15.60;99.90
41168;DHT22;26906;45.658;9.272;2024-02-21T10:01:08;15.80;99.90
41168;DHT22;26906;45.658;9.272;2024-02-21T10:03:35;16.00;99.90
41168;DHT22;26906;45.658;9.272;2024-02-21T10:06:01;16.10;99.90
41168;DHT22;26906;45.658;9.272;2024-02-21T10:08:27;16.20;99.90
41168;DHT22;26906;45.658;9.272;2024-02-21T10:10:52;16.30;99.90
41168;DHT22;26906;45.658;9.272;2024-02-21T10:13:25;16.40;99.90
41168;DHT22;26906;45.658;9.272;2024-02-21T10:16:07;16.50;99.90
41168;DHT22;26906;45.658;9.272;2024-02-21T10:18:33;16.40;99.90
41168;DHT22;26906;45.658;9.272;2024-02-21T10:23:29;16.70;99.90
41168;DHT22;26906;45.658;9.272;2024-02-21T10:26:05;16.70;99.90
41168;DHT22;26906;45.658;9.272;2024-02-21T10:28:33;16.90;99.90
41168;DHT22;26906;45.658;9.272;2024-02-21T10:30:58;17.10;99.90
41168;DHT22;26906;45.658;9.272;2024-02-21T10:33:25;17.10;99.90
41168;DHT22;26906;45.658;9.272;2024-02-21T10:35:54;17.20;99.90
41168;DHT22;26906;45.658;9.272;2024-02-21T10:38:21;17.00;99.90
41168;DHT22;26906;45.658;9.272;2024-02-21T10:40:47;17.10;99.90
41168;DHT22;26906;45.658;9.272;2024-02-21T10:43:16;17.10;99.90
41168;DHT22;26906;45.658;9.272;2024-02-21T10:45:47;17.10;99.90
41168;DHT22;26906;45.658;9.272;2024-02-21T10:48:14;17.10;99.90
41168;DHT22;26906;45.658;9.272;2024-02-21T10:56:31;17.00;99.90
41168;DHT22;26906;45.658;9.272;2024-02-21T10:59:01;17.00;99.90
41168;DHT22;26906;45.658;9.272;2024-02-21T11:01:31;17.00;99.90
41168;DHT22;26906;45.658;9.272;2024-02-21T11:03:59;17.10;99.90
41168;DHT22;26906;45.658;9.272;2024-02-21T11:06:27;17.20;99.90
41168;DHT22;26906;45.658;9.272;2024-02-21T11:09:02;17.40;99.90
41168;DHT22;26906;45.658;9.272;2024-02-21T11:11:28;17.30;99.90
41168;DHT22;26906;45.658;9.272;2024-02-21T11:14:04;17.20;99.90
41168;DHT22;26906;45.658;9.272;2024-02-21T11:16:38;17.30;99.90
41168;DHT22;26906;45.658;9.272;2024-02-21T11:19:09;17.50;99.90
41168;DHT22;26906;45.658;9.272;2024-02-21T11:21:38;17.50;99.90
41168;DHT22;26906;45.658;9.272;2024-02-21T11:24:04;17.40;99.90
41168;DHT22;26906;45.658;9.272;2024-02-21T11:26:31;17.50;99.90
41168;DHT22;26906;45.658;9.272;2024-02-21T11:29:06;17.70;99.90
41168;DHT22;26906;45.658;9.272;2024-02-21T11:31:42;17.80;99.90
41168;DHT22;26906;45.658;9.272;2024-02-21T11:34:08;18.00;99.90
41168;DHT22;26906;45.658;9.272;2024-02-21T11:36:46;18.00;99.90
41168;DHT22;26906;45.658;9.272;2024-02-21T11:39:12;18.10;99.90
41168;DHT22;26906;45.658;9.272;2024-02-21T11:41:38;18.20;99.90
41168;DHT22;26906;45.658;9.272;2024-02-21T11:44:04;18.10;99.90
41168;DHT22;26906;45.658;9.272;2024-02-21T11:46:30;18.10;99.90
41168;DHT22;26906;45.658;9.272;2024-02-21T11:48:56;18.10;99.90
41168;DHT22;26906;45.658;9.272;2024-02-21T11:51:28;18.10;99.90
41168;DHT22;26906;45.658;9.272;2024-02-21T11:53:53;18.10;99.90
41168;DHT22;26906;45.658;9.272;2024-02-21T11:56:19;18.30;99.90
41168;DHT22;26906;45.658;9.272;2024-02-21T11:58:49;18.30;99.90
41168;DHT22;26906;45.658;9.272;2024-02-21T12:01:15;18.50;99.90
41168;DHT22;26906;45.658;9.272;2024-02-21T12:03:42;18.60;99.90
41168;DHT22;26906;45.658;9.272;2024-02-21T12:06:08;18.60;99.90
41168;DHT22;26906;45.658;9.272;2024-02-21T12:08:47;18.70;99.90
41168;DHT22;26906;45.658;9.272;2024-02-21T12:11:21;18.70;99.90
41168;DHT22;26906;45.658;9.272;2024-02-21T12:14:01;18.80;99.90
41168;DHT22;26906;45.658;9.272;2024-02-21T12:16:29;19.00;99.90
41168;DHT22;26906;45.658;9.272;2024-02-21T12:18:59;19.00;99.90
41168;DHT22;26906;45.658;9.272;2024-02-21T12:21:35;19.10;99.90
41168;DHT22;26906;45.658;9.272;2024-02-21T12:24:20;19.10;99.90
41168;DHT22;26906;45.658;9.272;2024-02-21T12:26:46;18.90;99.90
41168;DHT22;26906;45.658;9.272;2024-02-21T12:29:12;18.80;99.90
41168;DHT22;26906;45.658;9.272;2024-02-21T12:31:40;18.60;99.90
41168;DHT22;26906;45.658;9.272;2024-02-21T12:34:07;18.60;99.90
41168;DHT22;26906;45.658;9.272;2024-02-21T12:37:10;18.70;99.90
41168;DHT22;26906;45.658;9.272;2024-02-21T12:40:12;18.80;99.90
41168;DHT22;26906;45.658;9.272;2024-02-21T12:42:38;18.90;99.90
41168;DHT22;26906;45.658;9.272;2024-02-21T12:45:05;18.90;99.90
41168;DHT22;26906;45.658;9.272;2024-02-21T12:47:30;18.90;99.90
41168;DHT22;26906;45.658;9.272;2024-02-21T12:49:56;19.00;99.90
41168;DHT22;26906;45.658;9.272;2024-02-21T12:52:47;19.00;99.90
41168;DHT22;26906;45.658;9.272;2024-02-21T12:58:33;19.00;99.90
41168;DHT22;26906;45.658;9.272;2024-02-21T13:00:59;18.90;99.90
41168;DHT22;26906;45.658;9.272;2024-02-21T13:03:25;18.80;99.90
41168;DHT22;26906;45.658;9.272;2024-02-21T13:05:51;18.80;99.90
41168;DHT22;26906;45.658;9.272;2024-02-21T13:08:17;18.80;99.90
41168;DHT22;26906;45.658;9.272;2024-02-21T13:14:24;18.90;99.90
41168;DHT22;26906;45.658;9.272;2024-02-21T13:16:52;18.80;99.90
41168;DHT22;26906;45.658;9.272;2024-02-21T13:19:33;18.80;99.90
41168;DHT22;26906;45.658;9.272;2024-02-21T13:21:59;18.80;99.90
41168;DHT22;26906;45.658;9.272;2024-02-21T13:24:26;18.90;99.90
41168;DHT22;26906;45.658;9.272;2024-02-21T13:26:52;19.00;99.90
41168;DHT22;26906;45.658;9.272;2024-02-21T13:29:18;19.00;99.90
41168;DHT22;26906;45.658;9.272;2024-02-21T13:31:44;18.80;99.90
41168;DHT22;26906;45.658;9.272;2024-02-21T13:34:10;18.80;99.90
41168;DHT22;26906;45.658;9.272;2024-02-21T13:36:36;18.80;99.90
41168;DHT22;26906;45.658;9.272;2024-02-21T13:39:01;18.90;99.90
41168;DHT22;26906;45.658;9.272;2024-02-21T13:41:30;19.00;99.90
41168;DHT22;26906;45.658;9.272;2024-02-21T13:43:56;19.10;99.90
41168;DHT22;26906;45.658;9.272;2024-02-21T13:46:22;19.20;99.90
41168;DHT22;26906;45.658;9.272;2024-02-21T13:48:48;19.20;99.90
41168;DHT22;26906;45.658;9.272;2024-02-21T13:51:14;19.10;99.90
41168;DHT22;26906;45.658;9.272;2024-02-21T13:53:42;19.10;99.90
41168;DHT22;26906;45.658;9.272;2024-02-21T13:56:08;19.10;99.90
41168;DHT22;26906;45.658;9.272;2024-02-21T13:58:37;19.00;99.90
41168;DHT22;26906;45.658;9.272;2024-02-21T14:01:03;19.00;99.90
41168;DHT22;26906;45.658;9.272;2024-02-21T14:03:29;18.90;99.90
41168;DHT22;26906;45.658;9.272;2024-02-21T14:05:54;18.90;99.90
41168;DHT22;26906;45.658;9.272;2024-02-21T14:08:21;18.70;99.90
41168;DHT22;26906;45.658;9.272;2024-02-21T14:10:47;18.70;99.90
41168;DHT22;26906;45.658;9.272;2024-02-21T14:13:13;18.60;99.90
41168;DHT22;26906;45.658;9.272;2024-02-21T14:15:41;18.60;99.90
41168;DHT22;26906;45.658;9.272;2024-02-21T14:18:07;18.60;99.90
41168;DHT22;26906;45.658;9.272;2024-02-21T14:20:35;18.50;99.90
41168;DHT22;26906;45.658;9.272;2024-02-21T14:23:00;18.70;99.90
41168;DHT22;26906;45.658;9.272;2024-02-21T14:25:26;18.70;99.90
41168;DHT22;26906;45.658;9.272;2024-02-21T14:27:53;18.70;99.90
41168;DHT22;26906;45.658;9.272;2024-02-21T14:30:19;18.50;99.90
41168;DHT22;26906;45.658;9.272;2024-02-21T14:32:44;18.40;99.90
41168;DHT22;26906;45.658;9.272;2024-02-21T14:35:11;18.40;99.90
41168;DHT22;26906;45.658;9.272;2024-02-21T14:37:36;18.40;99.90
41168;DHT22;26906;45.658;9.272;2024-02-21T14:40:03;18.40;99.90
41168;DHT22;26906;45.658;9.272;2024-02-21T14:42:30;18.40;99.90
41168;DHT22;26906;45.658;9.272;2024-02-21T14:44:56;18.10;99.90
41168;DHT22;26906;45.658;9.272;2024-02-21T14:47:30;18.10;99.90
41168;DHT22;26906;45.658;9.272;2024-02-21T14:49:56;18.10;99.90
41168;DHT22;26906;45.658;9.272;2024-02-21T14:52:21;17.90;99.90
41168;DHT22;26906;45.658;9.272;2024-02-21T14:54:47;17.80;99.90
41168;DHT22;26906;45.658;9.272;2024-02-21T14:57:17;17.60;99.90
41168;DHT22;26906;45.658;9.272;2024-02-21T14:59:43;17.60;99.90
41168;DHT22;26906;45.658;9.272;2024-02-21T15:02:09;17.60;99.90
41168;DHT22;26906;45.658;9.272;2024-02-21T15:04:35;17.60;99.90
41168;DHT22;26906;45.658;9.272;2024-02-21T15:07:01;17.60;99.90
41168;DHT22;26906;45.658;9.272;2024-02-21T15:09:28;17.70;99.90
41168;DHT22;26906;45.658;9.272;2024-02-21T15:11:54;17.70;99.90
41168;DHT22;26906;45.658;9.272;2024-02-21T15:14:19;17.70;99.90
41168;DHT22;26906;45.658;9.272;2024-02-21T15:16:49;17.70;99.90
41168;DHT22;26906;45.658;9.272;2024-02-21T15:19:15;17.60;99.90
41168;DHT22;26906;45.658;9.272;2024-02-21T15:21:40;17.60;99.90
41168;DHT22;26906;45.658;9.272;2024-02-21T15:24:06;17.70;99.90
41168;DHT22;26906;45.658;9.272;2024-02-21T15:26:32;17.70;99.90
41168;DHT22;26906;45.658;9.272;2024-02-21T15:28:57;17.80;99.90
41168;DHT22;26906;45.658;9.272;2024-02-21T15:31:23;17.80;99.90
41168;DHT22;26906;45.658;9.272;2024-02-21T15:33:52;17.80;99.90
41168;DHT22;26906;45.658;9.272;2024-02-21T15:36:18;17.70;99.90
41168;DHT22;26906;45.658;9.272;2024-02-21T15:38:47;17.60;99.90
41168;DHT22;26906;45.658;9.272;2024-02-21T15:41:14;17.50;99.90
41168;DHT22;26906;45.658;9.272;2024-02-21T15:43:40;17.40;99.90
41168;DHT22;26906;45.658;9.272;2024-02-21T15:46:06;17.40;99.90
41168;DHT22;26906;45.658;9.272;2024-02-21T15:48:31;17.30;99.90
41168;DHT22;26906;45.658;9.272;2024-02-21T15:51:00;17.30;99.90
41168;DHT22;26906;45.658;9.272;2024-02-21T15:53:26;17.30;99.90
41168;DHT22;26906;45.658;9.272;2024-02-21T15:55:53;17.20;99.90
41168;DHT22;26906;45.658;9.272;2024-02-21T15:58:19;17.10;99.90
41168;DHT22;26906;45.658;9.272;2024-02-21T16:00:48;16.90;99.90
41168;DHT22;26906;45.658;9.272;2024-02-21T16:03:14;16.90;99.90
41168;DHT22;26906;45.658;9.272;2024-02-21T16:05:41;16.90;99.90
41168;DHT22;26906;45.658;9.272;2024-02-21T16:08:08;16.80;99.90
41168;DHT22;26906;45.658;9.272;2024-02-21T16:10:34;16.80;99.90
41168;DHT22;26906;45.658;9.272;2024-02-21T16:12:59;16.70;99.90
41168;DHT22;26906;45.658;9.272;2024-02-21T16:15:25;16.60;99.90
41168;DHT22;26906;45.658;9.272;2024-02-21T16:17:51;16.50;99.90
41168;DHT22;26906;45.658;9.272;2024-02-21T16:20:17;16.40;99.90
41168;DHT22;26906;45.658;9.272;2024-02-21T16:22:43;16.30;99.90
41168;DHT22;26906;45.658;9.272;2024-02-21T16:25:09;16.20;99.90
41168;DHT22;26906;45.658;9.272;2024-02-21T16:27:35;16.10;99.90
41168;DHT22;26906;45.658;9.272;2024-02-21T16:30:01;16.10;99.90
41168;DHT22;26906;45.658;9.272;2024-02-21T16:32:27;16.00;99.90
41168;DHT22;26906;45.658;9.272;2024-02-21T16:34:53;15.90;99.90
41168;DHT22;26906;45.658;9.272;2024-02-21T16:37:19;15.90;99.90
41168;DHT22;26906;45.658;9.272;2024-02-21T16:39:45;15.60;99.90
41168;DHT22;26906;45.658;9.272;2024-02-21T16:42:12;15.60;99.90
41168;DHT22;26906;45.658;9.272;2024-02-21T16:44:38;15.50;99.90
41168;DHT22;26906;45.658;9.272;2024-02-21T16:47:06;15.40;99.90
41168;DHT22;26906;45.658;9.272;2024-02-21T16:49:33;15.40;99.90
41168;DHT22;26906;45.658;9.272;2024-02-21T16:51:58;15.30;99.90
41168;DHT22;26906;45.658;9.272;2024-02-21T16:54:25;15.20;99.90
41168;DHT22;26906;45.658;9.272;2024-02-21T16:56:53;15.10;99.90
41168;DHT22;26906;45.658;9.272;2024-02-21T16:59:20;15.00;99.90
41168;DHT22;26906;45.658;9.272;2024-02-21T17:01:46;14.90;99.90
41168;DHT22;26906;45.658;9.272;2024-02-21T17:04:14;14.80;99.90
41168;DHT22;26906;45.658;9.272;2024-02-21T17:06:40;14.70;99.90
41168;DHT22;26906;45.658;9.272;2024-02-21T17:09:06;14.70;99.90
41168;DHT22;26906;45.658;9.272;2024-02-21T17:11:37;14.70;99.90
41168;DHT22;26906;45.658;9.272;2024-02-21T17:14:02;14.60;99.90
41168;DHT22;26906;45.658;9.272;2024-02-21T17:16:29;14.60;99.90
41168;DHT22;26906;45.658;9.272;2024-02-21T17:18:56;14.40;99.90
41168;DHT22;26906;45.658;9.272;2024-02-21T17:21:22;14.40;99.90
41168;DHT22;26906;45.658;9.272;2024-02-21T17:23:48;14.20;99.90
41168;DHT22;26906;45.658;9.272;2024-02-21T17:26:14;14.20;99.90
41168;DHT22;26906;45.658;9.272;2024-02-21T17:28:40;14.20;99.90
41168;DHT22;26906;45.658;9.272;2024-02-21T17:31:05;14.10;99.90
41168;DHT22;26906;45.658;9.272;2024-02-21T17:33:31;14.00;99.90
41168;DHT22;26906;45.658;9.272;2024-02-21T17:35:57;14.00;99.90
41168;DHT22;26906;45.658;9.272;2024-02-21T17:38:24;13.90;99.90
41168;DHT22;26906;45.658;9.272;2024-02-21T17:40:51;13.80;99.90
41168;DHT22;26906;45.658;9.272;2024-02-21T17:43:19;13.80;99.90
41168;DHT22;26906;45.658;9.272;2024-02-21T17:45:53;13.80;99.90
41168;DHT22;26906;45.658;9.272;2024-02-21T17:48:23;13.70;99.90
41168;DHT22;26906;45.658;9.272;2024-02-21T17:50:49;13.60;99.90
41168;DHT22;26906;45.658;9.272;2024-02-21T17:53:16;13.70;99.90
41168;DHT22;26906;45.658;9.272;2024-02-21T17:55:44;13.60;99.90
41168;DHT22;26906;45.658;9.272;2024-02-21T17:58:09;13.70;99.90
41168;DHT22;26906;45.658;9.272;2024-02-21T18:00:35;13.70;99.90
41168;DHT22;26906;45.658;9.272;2024-02-21T18:03:01;13.50;99.90
41168;DHT22;26906;45.658;9.272;2024-02-21T18:05:28;13.50;99.90
41168;DHT22;26906;45.658;9.272;2024-02-21T18:07:55;13.50;99.90
41168;DHT22;26906;45.658;9.272;2024-02-21T18:10:22;13.50;99.90
41168;DHT22;26906;45.658;9.272;2024-02-21T18:12:47;13.40;99.90
41168;DHT22;26906;45.658;9.272;2024-02-21T18:15:13;13.30;99.90
41168;DHT22;26906;45.658;9.272;2024-02-21T18:17:40;13.30;99.90
41168;DHT22;26906;45.658;9.272;2024-02-21T18:20:06;13.30;99.90
41168;DHT22;26906;45.658;9.272;2024-02-21T18:22:33;13.40;99.90
41168;DHT22;26906;45.658;9.272;2024-02-21T18:25:00;13.30;99.90
41168;DHT22;26906;45.658;9.272;2024-02-21T18:27:26;13.20;99.90
41168;DHT22;26906;45.658;9.272;2024-02-21T18:29:53;13.10;99.90
41168;DHT22;26906;45.658;9.272;2024-02-21T18:32:18;13.00;99.90
41168;DHT22;26906;45.658;9.272;2024-02-21T18:34:44;12.90;99.90
41168;DHT22;26906;45.658;9.272;2024-02-21T18:37:10;12.90;99.90
41168;DHT22;26906;45.658;9.272;2024-02-21T18:39:35;12.80;99.90
41168;DHT22;26906;45.658;9.272;2024-02-21T18:42:03;12.80;99.90
41168;DHT22;26906;45.658;9.272;2024-02-21T18:44:32;12.90;99.90
41168;DHT22;26906;45.658;9.272;2024-02-21T18:46:58;12.90;99.90
41168;DHT22;26906;45.658;9.272;2024-02-21T18:49:24;12.80;99.90
41168;DHT22;26906;45.658;9.272;2024-02-21T18:51:49;13.00;99.90
41168;DHT22;26906;45.658;9.272;2024-02-21T18:54:15;13.00;99.90
41168;DHT22;26906;45.658;9.272;2024-02-21T18:56:48;13.00;99.90
41168;DHT22;26906;45.658;9.272;2024-02-21T18:59:14;13.00;99.90
41168;DHT22;26906;45.658;9.272;2024-02-21T19:01:39;13.10;99.90
41168;DHT22;26906;45.658;9.272;2024-02-21T19:04:06;12.90;99.90
41168;DHT22;26906;45.658;9.272;2024-02-21T19:06:32;12.90;99.90
41168;DHT22;26906;45.658;9.272;2024-02-21T19:08:58;12.80;99.90
41168;DHT22;26906;45.658;9.272;2024-02-21T19:11:23;12.80;99.90
41168;DHT22;26906;45.658;9.272;2024-02-21T19:13:49;12.90;99.90
41168;DHT22;26906;45.658;9.272;2024-02-21T19:16:15;12.90;99.90
41168;DHT22;26906;45.658;9.272;2024-02-21T19:18:41;12.90;99.90
41168;DHT22;26906;45.658;9.272;2024-02-21T19:21:08;12.90;99.90
41168;DHT22;26906;45.658;9.272;2024-02-21T19:23:36;12.90;99.90
41168;DHT22;26906;45.658;9.272;2024-02-21T19:26:09;12.70;99.90
41168;DHT22;26906;45.658;9.272;2024-02-21T19:28:37;12.90;99.90
41168;DHT22;26906;45.658;9.272;2024-02-21T19:31:05;12.90;99.90
41168;DHT22;26906;45.658;9.272;2024-02-21T19:33:31;12.80;99.90
41168;DHT22;26906;45.658;9.272;2024-02-21T19:35:56;12.90;99.90
41168;DHT22;26906;45.658;9.272;2024-02-21T19:38:22;12.80;99.90
41168;DHT22;26906;45.658;9.272;2024-02-21T19:40:51;12.90;99.90
41168;DHT22;26906;45.658;9.272;2024-02-21T19:43:16;12.90;99.90
41168;DHT22;26906;45.658;9.272;2024-02-21T19:45:43;12.80;99.90
41168;DHT22;26906;45.658;9.272;2024-02-21T19:48:12;12.80;99.90
41168;DHT22;26906;45.658;9.272;2024-02-21T19:50:41;12.70;99.90
41168;DHT22;26906;45.658;9.272;2024-02-21T19:53:07;12.60;99.90
41168;DHT22;26906;45.658;9.272;2024-02-21T19:55:32;12.60;99.90
41168;DHT22;26906;45.658;9.272;2024-02-21T19:57:58;12.60;99.90
41168;DHT22;26906;45.658;9.272;2024-02-21T20:00:24;12.60;99.90
41168;DHT22;26906;45.658;9.272;2024-02-21T20:02:49;12.60;99.90
41168;DHT22;26906;45.658;9.272;2024-02-21T20:05:17;12.40;99.90
41168;DHT22;26906;45.658;9.272;2024-02-21T20:07:44;12.30;99.90
41168;DHT22;26906;45.658;9.272;2024-02-21T20:10:10;12.20;99.90
41168;DHT22;26906;45.658;9.272;2024-02-21T20:12:37;12.20;99.90
41168;DHT22;26906;45.658;9.272;2024-02-21T20:15:06;12.20;99.90
41168;DHT22;26906;45.658;9.272;2024-02-21T20:17:33;12.30;99.90
41168;DHT22;26906;45.658;9.272;2024-02-21T20:19:59;12.20;99.90
41168;DHT22;26906;45.658;9.272;2024-02-21T20:22:25;12.10;99.90
41168;DHT22;26906;45.658;9.272;2024-02-21T20:24:51;12.10;99.90
41168;DHT22;26906;45.658;9.272;2024-02-21T20:27:17;12.10;99.90
41168;DHT22;26906;45.658;9.272;2024-02-21T20:29:42;12.10;99.90
41168;DHT22;26906;45.658;9.272;2024-02-21T20:32:08;12.30;99.90
41168;DHT22;26906;45.658;9.272;2024-02-21T20:34:34;12.20;99.90
41168;DHT22;26906;45.658;9.272;2024-02-21T20:37:00;12.20;99.90
41168;DHT22;26906;45.658;9.272;2024-02-21T20:39:28;12.10;99.90
41168;DHT22;26906;45.658;9.272;2024-02-21T20:41:56;12.20;99.90
41168;DHT22;26906;45.658;9.272;2024-02-21T20:44:25;12.40;99.90
41168;DHT22;26906;45.658;9.272;2024-02-21T20:47:04;12.30;99.90
41168;DHT22;26906;45.658;9.272;2024-02-21T20:49:30;12.20;99.90
41168;DHT22;26906;45.658;9.272;2024-02-21T20:51:59;12.10;99.90
41168;DHT22;26906;45.658;9.272;2024-02-21T20:54:25;12.40;99.90
41168;DHT22;26906;45.658;9.272;2024-02-21T20:56:50;12.20;99.90
41168;DHT22;26906;45.658;9.272;2024-02-21T20:59:16;12.20;99.90
41168;DHT22;26906;45.658;9.272;2024-02-21T21:01:44;12.20;99.90
41168;DHT22;26906;45.658;9.272;2024-02-21T21:04:10;12.40;99.90
41168;DHT22;26906;45.658;9.272;2024-02-21T21:06:36;12.20;99.90
41168;DHT22;26906;45.658;9.272;2024-02-21T21:09:01;12.10;99.90
41168;DHT22;26906;45.658;9.272;2024-02-21T21:11:27;11.80;99.90
41168;DHT22;26906;45.658;9.272;2024-02-21T21:13:55;11.70;99.90
41168;DHT22;26906;45.658;9.272;2024-02-21T21:16:21;11.70;99.90
41168;DHT22;26906;45.658;9.272;2024-02-21T21:18:47;11.70;99.90
41168;DHT22;26906;45.658;9.272;2024-02-21T21:21:13;11.90;99.90
41168;DHT22;26906;45.658;9.272;2024-02-21T21:23:39;11.80;99.90
41168;DHT22;26906;45.658;9.272;2024-02-21T21:26:06;11.90;99.90
